sensor_id;sensor_type;location;lat;lon;timestamp;P1;durP1;ratioP1;P2;durP2;ratioP2
14681;SDS011;7429;52.498;13.480;2023-03-19T00:00:42;26.53;;;20.73;;
14681;SDS011;7429;52.498;13.480;2023-03-19T00:03:45;30.53;;;20.97;;
14681;SDS011;7429;52.498;13.480;2023-03-19T00:06:50;25.67;;;20.43;;
14681;SDS011;7429;52.498;13.480;2023-03-19T00:09:53;29.83;;;21.77;;
14681;SDS011;7429;52.498;13.480;2023-03-19T00:12:56;28.07;;;20.47;;
14681;SDS011;7429;52.498;13.480;2023-03-19T00:15:59;26.73;;;22.63;;
14681;SDS011;7429;52.498;13.480;2023-03-19T00:19:02;25.37;;;22.03;;
14681;SDS011;7429;52.498;13.480;2023-03-19T00:22:07;29.50;;;21.07;;
14681;SDS011;7429;52.498;13.480;2023-03-19T00:25:10;28.43;;;20.27;;
14681;SDS011;7429;52.498;13.480;2023-03-19T00:28:13;23.67;;;19.47;;
14681;SDS011;7429;52.498;13.480;2023-03-19T00:31:17;26.43;;;21.20;;
14681;SDS011;7429;52.498;13.480;2023-03-19T00:34:20;29.40;;;18.43;;
14681;SDS011;7429;52.498;13.480;2023-03-19T00:37:24;23.80;;;19.00;;
14681;SDS011;7429;52.498;13.480;2023-03-19T00:40:28;23.60;;;17.70;;
14681;SDS011;7429;52.498;13.480;2023-03-19T00:43:32;25.30;;;16.90;;
14681;SDS011;7429;52.498;13.480;2023-03-19T00:46:35;28.03;;;17.60;;
14681;SDS011;7429;52.498;13.480;2023-03-19T00:49:38;21.87;;;16.80;;
14681;SDS011;7429;52.498;13.480;2023-03-19T00:52:43;24.67;;;16.00;;
14681;SDS011;7429;52.498;13.480;2023-03-19T00:55:46;22.47;;;15.93;;
14681;SDS011;7429;52.498;13.480;2023-03-19T00:58:49;21.87;;;15.70;;
14681;SDS011;7429;52.498;13.480;2023-03-19T01:01:53;20.17;;;16.00;;
14681;SDS011;7429;52.498;13.480;2023-03-19T01:04:56;21.40;;;16.07;;
14681;SDS011;7429;52.498;13.480;2023-03-19T01:08:00;19.67;;;15.30;;
14681;SDS011;7429;52.498;13.480;2023-03-19T01:11:04;21.50;;;14.20;;
14681;SDS011;7429;52.498;13.480;2023-03-19T01:14:09;20.30;;;14.47;;
14681;SDS011;7429;52.498;13.480;2023-03-19T01:17:13;24.03;;;15.90;;
14681;SDS011;7429;52.498;13.480;2023-03-19T01:20:19;24.63;;;15.07;;
14681;SDS011;7429;52.498;13.480;2023-03-19T01:23:26;21.93;;;15.53;;
14681;SDS011;7429;52.498;13.480;2023-03-19T01:26:30;25.80;;;15.13;;
14681;SDS011;7429;52.498;13.480;2023-03-19T01:29:46;21.93;;;15.93;;
14681;SDS011;7429;52.498;13.480;2023-03-19T01:33:18;21.90;;;16.30;;
14681;SDS011;7429;52.498;13.480;2023-03-19T01:36:33;24.73;;;15.63;;
14681;SDS011;7429;52.498;13.480;2023-03-19T01:39:40;23.40;;;17.23;;
14681;SDS011;7429;52.498;13.480;2023-03-19T01:42:49;22.90;;;17.33;;
14681;SDS011;7429;52.498;13.480;2023-03-19T01:46:27;22.60;;;17.97;;
14681;SDS011;7429;52.498;13.480;2023-03-19T01:49:53;22.30;;;15.33;;
14681;SDS011;7429;52.498;13.480;2023-03-19T01:52:58;20.60;;;15.80;;
14681;SDS011;7429;52.498;13.480;2023-03-19T01:56:23;21.30;;;16.47;;
14681;SDS011;7429;52.498;13.480;2023-03-19T01:59:36;17.77;;;15.87;;
14681;SDS011;7429;52.498;13.480;2023-03-19T02:02:59;24.07;;;16.80;;
14681;SDS011;7429;52.498;13.480;2023-03-19T02:06:24;22.43;;;17.53;;
14681;SDS011;7429;52.498;13.480;2023-03-19T02:09:29;21.60;;;16.53;;
14681;SDS011;7429;52.498;13.480;2023-03-19T02:12:34;22.10;;;16.33;;
14681;SDS011;7429;52.498;13.480;2023-03-19T02:15:38;23.87;;;14.93;;
14681;SDS011;7429;52.498;13.480;2023-03-19T02:18:42;18.53;;;14.43;;
14681;SDS011;7429;52.498;13.480;2023-03-19T02:21:47;18.23;;;14.20;;
14681;SDS011;7429;52.498;13.480;2023-03-19T02:24:54;23.37;;;14.90;;
14681;SDS011;7429;52.498;13.480;2023-03-19T02:28:02;24.37;;;15.03;;
14681;SDS011;7429;52.498;13.480;2023-03-19T02:31:06;22.30;;;15.33;;
14681;SDS011;7429;52.498;13.480;2023-03-19T02:37:37;20.33;;;15.37;;
14681;SDS011;7429;52.498;13.480;2023-03-19T02:40:41;21.43;;;14.73;;
14681;SDS011;7429;52.498;13.480;2023-03-19T02:43:50;18.73;;;13.43;;
14681;SDS011;7429;52.498;13.480;2023-03-19T02:46:55;21.23;;;15.87;;
14681;SDS011;7429;52.498;13.480;2023-03-19T02:49:58;19.83;;;15.33;;
14681;SDS011;7429;52.498;13.480;2023-03-19T02:53:01;19.80;;;14.70;;
14681;SDS011;7429;52.498;13.480;2023-03-19T02:56:04;19.53;;;15.83;;
14681;SDS011;7429;52.498;13.480;2023-03-19T02:59:09;25.37;;;15.00;;
14681;SDS011;7429;52.498;13.480;2023-03-19T03:02:13;16.97;;;14.97;;
14681;SDS011;7429;52.498;13.480;2023-03-19T03:05:16;19.47;;;14.33;;
14681;SDS011;7429;52.498;13.480;2023-03-19T03:08:20;22.73;;;14.63;;
14681;SDS011;7429;52.498;13.480;2023-03-19T03:11:23;19.17;;;14.17;;
14681;SDS011;7429;52.498;13.480;2023-03-19T03:14:28;19.43;;;13.93;;
14681;SDS011;7429;52.498;13.480;2023-03-19T03:17:32;20.03;;;15.33;;
14681;SDS011;7429;52.498;13.480;2023-03-19T03:20:35;23.07;;;15.27;;
14681;SDS011;7429;52.498;13.480;2023-03-19T03:23:38;19.23;;;13.90;;
14681;SDS011;7429;52.498;13.480;2023-03-19T03:26:42;20.07;;;15.00;;
14681;SDS011;7429;52.498;13.480;2023-03-19T03:29:46;18.87;;;14.63;;
14681;SDS011;7429;52.498;13.480;2023-03-19T03:32:49;17.90;;;15.13;;
14681;SDS011;7429;52.498;13.480;2023-03-19T03:35:53;18.43;;;13.73;;
14681;SDS011;7429;52.498;13.480;2023-03-19T03:38:57;22.47;;;16.07;;
14681;SDS011;7429;52.498;13.480;2023-03-19T03:42:00;19.63;;;14.93;;
14681;SDS011;7429;52.498;13.480;2023-03-19T03:45:06;21.50;;;15.13;;
14681;SDS011;7429;52.498;13.480;2023-03-19T03:48:11;24.00;;;15.03;;
14681;SDS011;7429;52.498;13.480;2023-03-19T03:51:14;22.23;;;14.27;;
14681;SDS011;7429;52.498;13.480;2023-03-19T03:54:18;19.33;;;14.70;;
14681;SDS011;7429;52.498;13.480;2023-03-19T03:57:21;20.60;;;14.93;;
14681;SDS011;7429;52.498;13.480;2023-03-19T04:00:26;22.97;;;14.50;;
14681;SDS011;7429;52.498;13.480;2023-03-19T04:03:29;21.20;;;15.53;;
14681;SDS011;7429;52.498;13.480;2023-03-19T04:06:32;20.33;;;15.00;;
14681;SDS011;7429;52.498;13.480;2023-03-19T04:09:49;18.93;;;14.33;;
14681;SDS011;7429;52.498;13.480;2023-03-19T04:12:53;20.30;;;15.03;;
14681;SDS011;7429;52.498;13.480;2023-03-19T04:15:57;24.83;;;15.13;;
14681;SDS011;7429;52.498;13.480;2023-03-19T04:19:01;21.00;;;14.73;;
14681;SDS011;7429;52.498;13.480;2023-03-19T04:22:05;23.07;;;15.50;;
14681;SDS011;7429;52.498;13.480;2023-03-19T04:25:09;19.23;;;14.83;;
14681;SDS011;7429;52.498;13.480;2023-03-19T04:28:13;21.47;;;15.13;;
14681;SDS011;7429;52.498;13.480;2023-03-19T04:31:18;22.40;;;15.53;;
14681;SDS011;7429;52.498;13.480;2023-03-19T04:34:22;21.90;;;15.93;;
14681;SDS011;7429;52.498;13.480;2023-03-19T04:37:25;18.40;;;15.60;;
14681;SDS011;7429;52.498;13.480;2023-03-19T04:40:28;19.47;;;14.53;;
14681;SDS011;7429;52.498;13.480;2023-03-19T04:43:32;18.20;;;14.97;;
14681;SDS011;7429;52.498;13.480;2023-03-19T04:46:39;17.30;;;14.50;;
14681;SDS011;7429;52.498;13.480;2023-03-19T04:49:42;19.90;;;14.03;;
14681;SDS011;7429;52.498;13.480;2023-03-19T04:52:45;19.10;;;14.77;;
14681;SDS011;7429;52.498;13.480;2023-03-19T04:55:49;26.20;;;16.90;;
14681;SDS011;7429;52.498;13.480;2023-03-19T04:58:53;17.33;;;14.83;;
14681;SDS011;7429;52.498;13.480;2023-03-19T05:01:58;20.53;;;15.43;;
14681;SDS011;7429;52.498;13.480;2023-03-19T05:05:03;18.33;;;14.97;;
14681;SDS011;7429;52.498;13.480;2023-03-19T05:08:07;18.43;;;14.80;;
14681;SDS011;7429;52.498;13.480;2023-03-19T05:11:11;22.70;;;15.43;;
14681;SDS011;7429;52.498;13.480;2023-03-19T05:14:29;20.90;;;16.03;;
14681;SDS011;7429;52.498;13.480;2023-03-19T05:17:42;21.23;;;16.27;;
14681;SDS011;7429;52.498;13.480;2023-03-19T05:20:53;20.87;;;16.67;;
14681;SDS011;7429;52.498;13.480;2023-03-19T05:23:58;22.43;;;17.60;;
14681;SDS011;7429;52.498;13.480;2023-03-19T05:27:03;22.47;;;16.53;;
14681;SDS011;7429;52.498;13.480;2023-03-19T05:30:25;29.63;;;19.33;;
14681;SDS011;7429;52.498;13.480;2023-03-19T05:33:38;26.07;;;18.93;;
14681;SDS011;7429;52.498;13.480;2023-03-19T05:36:43;24.57;;;18.50;;
14681;SDS011;7429;52.498;13.480;2023-03-19T05:39:51;24.27;;;17.83;;
14681;SDS011;7429;52.498;13.480;2023-03-19T05:42:54;26.40;;;20.53;;
14681;SDS011;7429;52.498;13.480;2023-03-19T05:46:00;30.63;;;19.87;;
14681;SDS011;7429;52.498;13.480;2023-03-19T05:49:09;27.97;;;19.83;;
14681;SDS011;7429;52.498;13.480;2023-03-19T05:52:12;29.00;;;20.30;;
14681;SDS011;7429;52.498;13.480;2023-03-19T05:55:16;27.40;;;20.63;;
14681;SDS011;7429;52.498;13.480;2023-03-19T05:58:24;29.50;;;19.70;;
14681;SDS011;7429;52.498;13.480;2023-03-19T06:01:29;28.60;;;20.30;;
14681;SDS011;7429;52.498;13.480;2023-03-19T06:04:35;25.70;;;19.67;;
14681;SDS011;7429;52.498;13.480;2023-03-19T06:07:38;24.30;;;19.00;;
14681;SDS011;7429;52.498;13.480;2023-03-19T06:10:47;26.20;;;19.23;;
14681;SDS011;7429;52.498;13.480;2023-03-19T06:13:51;27.23;;;19.43;;
14681;SDS011;7429;52.498;13.480;2023-03-19T06:16:54;27.13;;;20.13;;
14681;SDS011;7429;52.498;13.480;2023-03-19T06:19:59;25.63;;;19.53;;
14681;SDS011;7429;52.498;13.480;2023-03-19T06:23:02;26.73;;;19.47;;
14681;SDS011;7429;52.498;13.480;2023-03-19T06:26:05;24.53;;;18.13;;
14681;SDS011;7429;52.498;13.480;2023-03-19T06:29:16;28.80;;;20.23;;
14681;SDS011;7429;52.498;13.480;2023-03-19T06:32:23;25.63;;;18.47;;
14681;SDS011;7429;52.498;13.480;2023-03-19T06:35:28;22.97;;;17.77;;
14681;SDS011;7429;52.498;13.480;2023-03-19T06:38:31;21.10;;;18.17;;
14681;SDS011;7429;52.498;13.480;2023-03-19T06:41:35;24.87;;;17.43;;
14681;SDS011;7429;52.498;13.480;2023-03-19T06:44:46;24.23;;;17.70;;
14681;SDS011;7429;52.498;13.480;2023-03-19T06:47:56;21.60;;;17.17;;
14681;SDS011;7429;52.498;13.480;2023-03-19T06:51:04;25.50;;;17.07;;
14681;SDS011;7429;52.498;13.480;2023-03-19T06:54:08;21.47;;;16.83;;
14681;SDS011;7429;52.498;13.480;2023-03-19T06:57:11;21.80;;;16.00;;
14681;SDS011;7429;52.498;13.480;2023-03-19T07:00:14;24.13;;;16.33;;
14681;SDS011;7429;52.498;13.480;2023-03-19T07:03:21;22.97;;;17.03;;
14681;SDS011;7429;52.498;13.480;2023-03-19T07:06:26;20.80;;;16.00;;
14681;SDS011;7429;52.498;13.480;2023-03-19T07:09:30;21.43;;;16.37;;
14681;SDS011;7429;52.498;13.480;2023-03-19T07:12:33;24.60;;;15.70;;
14681;SDS011;7429;52.498;13.480;2023-03-19T07:15:39;24.03;;;17.20;;
14681;SDS011;7429;52.498;13.480;2023-03-19T07:18:42;21.37;;;17.13;;
14681;SDS011;7429;52.498;13.480;2023-03-19T07:21:49;22.27;;;17.30;;
14681;SDS011;7429;52.498;13.480;2023-03-19T07:24:52;21.63;;;17.53;;
14681;SDS011;7429;52.498;13.480;2023-03-19T07:27:55;24.70;;;18.33;;
14681;SDS011;7429;52.498;13.480;2023-03-19T07:30:58;23.83;;;17.77;;
14681;SDS011;7429;52.498;13.480;2023-03-19T07:34:01;27.03;;;19.07;;
14681;SDS011;7429;52.498;13.480;2023-03-19T07:37:06;24.90;;;19.33;;
14681;SDS011;7429;52.498;13.480;2023-03-19T07:40:10;23.50;;;20.13;;
14681;SDS011;7429;52.498;13.480;2023-03-19T07:43:13;25.20;;;18.57;;
14681;SDS011;7429;52.498;13.480;2023-03-19T07:46:16;25.60;;;18.20;;
14681;SDS011;7429;52.498;13.480;2023-03-19T07:49:20;25.90;;;19.03;;
14681;SDS011;7429;52.498;13.480;2023-03-19T07:52:25;23.07;;;18.63;;
14681;SDS011;7429;52.498;13.480;2023-03-19T07:55:29;23.57;;;18.87;;
14681;SDS011;7429;52.498;13.480;2023-03-19T07:58:32;23.10;;;18.67;;
14681;SDS011;7429;52.498;13.480;2023-03-19T08:01:35;30.33;;;18.03;;
14681;SDS011;7429;52.498;13.480;2023-03-19T08:04:38;23.03;;;18.33;;
14681;SDS011;7429;52.498;13.480;2023-03-19T08:07:43;26.57;;;19.70;;
14681;SDS011;7429;52.498;13.480;2023-03-19T08:11:23;18.50;;;14.97;;
14681;SDS011;7429;52.498;13.480;2023-03-19T08:14:27;24.07;;;16.67;;
14681;SDS011;7429;52.498;13.480;2023-03-19T08:17:30;22.47;;;15.87;;
14681;SDS011;7429;52.498;13.480;2023-03-19T08:20:38;23.10;;;16.30;;
14681;SDS011;7429;52.498;13.480;2023-03-19T08:23:43;25.20;;;17.27;;
14681;SDS011;7429;52.498;13.480;2023-03-19T08:26:46;20.67;;;16.67;;
14681;SDS011;7429;52.498;13.480;2023-03-19T08:29:49;19.87;;;15.43;;
14681;SDS011;7429;52.498;13.480;2023-03-19T08:32:52;20.53;;;15.90;;
14681;SDS011;7429;52.498;13.480;2023-03-19T08:36:02;18.73;;;13.83;;
14681;SDS011;7429;52.498;13.480;2023-03-19T08:39:11;15.90;;;13.73;;
14681;SDS011;7429;52.498;13.480;2023-03-19T08:42:14;16.83;;;13.37;;
14681;SDS011;7429;52.498;13.480;2023-03-19T08:45:20;16.40;;;12.47;;
14681;SDS011;7429;52.498;13.480;2023-03-19T08:48:25;16.17;;;13.73;;
14681;SDS011;7429;52.498;13.480;2023-03-19T08:51:28;15.10;;;13.47;;
14681;SDS011;7429;52.498;13.480;2023-03-19T08:54:34;23.10;;;15.80;;
14681;SDS011;7429;52.498;13.480;2023-03-19T08:57:37;20.73;;;15.20;;
14681;SDS011;7429;52.498;13.480;2023-03-19T09:00:40;21.30;;;15.97;;
14681;SDS011;7429;52.498;13.480;2023-03-19T09:03:43;22.87;;;16.07;;
14681;SDS011;7429;52.498;13.480;2023-03-19T09:06:46;19.83;;;16.50;;
14681;SDS011;7429;52.498;13.480;2023-03-19T09:09:56;21.90;;;17.53;;
14681;SDS011;7429;52.498;13.480;2023-03-19T09:12:59;21.97;;;17.37;;
14681;SDS011;7429;52.498;13.480;2023-03-19T09:16:02;19.43;;;17.03;;
14681;SDS011;7429;52.498;13.480;2023-03-19T09:19:06;24.87;;;18.47;;
14681;SDS011;7429;52.498;13.480;2023-03-19T09:22:10;24.83;;;18.80;;
14681;SDS011;7429;52.498;13.480;2023-03-19T09:25:14;23.50;;;17.53;;
14681;SDS011;7429;52.498;13.480;2023-03-19T09:28:18;24.67;;;20.10;;
14681;SDS011;7429;52.498;13.480;2023-03-19T09:31:21;20.87;;;18.10;;
14681;SDS011;7429;52.498;13.480;2023-03-19T09:34:24;24.47;;;18.57;;
14681;SDS011;7429;52.498;13.480;2023-03-19T09:37:27;23.23;;;18.70;;
14681;SDS011;7429;52.498;13.480;2023-03-19T09:40:34;25.03;;;18.57;;
14681;SDS011;7429;52.498;13.480;2023-03-19T09:43:45;20.40;;;18.23;;
14681;SDS011;7429;52.498;13.480;2023-03-19T09:47:06;23.17;;;19.13;;
14681;SDS011;7429;52.498;13.480;2023-03-19T09:50:26;23.00;;;17.37;;
14681;SDS011;7429;52.498;13.480;2023-03-19T09:53:32;21.60;;;16.83;;
14681;SDS011;7429;52.498;13.480;2023-03-19T09:56:45;22.23;;;17.97;;
14681;SDS011;7429;52.498;13.480;2023-03-19T09:59:48;21.03;;;18.20;;
14681;SDS011;7429;52.498;13.480;2023-03-19T10:03:03;24.47;;;19.40;;
14681;SDS011;7429;52.498;13.480;2023-03-19T10:06:24;21.83;;;18.53;;
14681;SDS011;7429;52.498;13.480;2023-03-19T10:09:38;24.03;;;17.20;;
14681;SDS011;7429;52.498;13.480;2023-03-19T10:12:58;24.97;;;19.63;;
14681;SDS011;7429;52.498;13.480;2023-03-19T10:16:11;27.97;;;22.07;;
14681;SDS011;7429;52.498;13.480;2023-03-19T10:19:20;24.20;;;18.70;;
14681;SDS011;7429;52.498;13.480;2023-03-19T10:22:33;22.83;;;18.43;;
14681;SDS011;7429;52.498;13.480;2023-03-19T10:25:45;22.63;;;17.87;;
14681;SDS011;7429;52.498;13.480;2023-03-19T10:28:54;23.83;;;19.43;;
14681;SDS011;7429;52.498;13.480;2023-03-19T10:32:06;24.57;;;17.67;;
14681;SDS011;7429;52.498;13.480;2023-03-19T10:35:21;23.07;;;18.07;;
14681;SDS011;7429;52.498;13.480;2023-03-19T10:38:29;27.00;;;19.47;;
14681;SDS011;7429;52.498;13.480;2023-03-19T10:41:37;24.33;;;18.73;;
14681;SDS011;7429;52.498;13.480;2023-03-19T10:44:50;23.50;;;17.93;;
14681;SDS011;7429;52.498;13.480;2023-03-19T10:48:03;22.77;;;17.57;;
14681;SDS011;7429;52.498;13.480;2023-03-19T10:51:09;21.57;;;18.07;;
14681;SDS011;7429;52.498;13.480;2023-03-19T10:54:17;20.57;;;17.57;;
14681;SDS011;7429;52.498;13.480;2023-03-19T10:57:26;21.23;;;16.13;;
14681;SDS011;7429;52.498;13.480;2023-03-19T11:00:33;18.90;;;16.07;;
14681;SDS011;7429;52.498;13.480;2023-03-19T11:03:37;19.77;;;17.70;;
14681;SDS011;7429;52.498;13.480;2023-03-19T11:06:47;18.50;;;16.03;;
14681;SDS011;7429;52.498;13.480;2023-03-19T11:09:51;17.27;;;14.77;;
14681;SDS011;7429;52.498;13.480;2023-03-19T11:12:58;17.37;;;15.67;;
14681;SDS011;7429;52.498;13.480;2023-03-19T11:16:06;18.57;;;15.13;;
14681;SDS011;7429;52.498;13.480;2023-03-19T11:19:15;17.33;;;13.93;;
14681;SDS011;7429;52.498;13.480;2023-03-19T11:22:22;20.17;;;15.07;;
14681;SDS011;7429;52.498;13.480;2023-03-19T11:25:27;15.87;;;13.73;;
14681;SDS011;7429;52.498;13.480;2023-03-19T11:28:41;14.97;;;13.13;;
14681;SDS011;7429;52.498;13.480;2023-03-19T11:31:47;16.23;;;13.73;;
14681;SDS011;7429;52.498;13.480;2023-03-19T11:34:57;18.20;;;16.30;;
14681;SDS011;7429;52.498;13.480;2023-03-19T11:38:02;16.00;;;13.20;;
14681;SDS011;7429;52.498;13.480;2023-03-19T11:41:10;16.33;;;13.13;;
14681;SDS011;7429;52.498;13.480;2023-03-19T11:44:23;15.03;;;12.10;;
14681;SDS011;7429;52.498;13.480;2023-03-19T11:47:34;13.70;;;12.20;;
14681;SDS011;7429;52.498;13.480;2023-03-19T11:50:48;12.90;;;10.87;;
14681;SDS011;7429;52.498;13.480;2023-03-19T11:53:58;16.13;;;13.23;;
14681;SDS011;7429;52.498;13.480;2023-03-19T11:57:08;13.60;;;12.17;;
14681;SDS011;7429;52.498;13.480;2023-03-19T12:00:20;13.53;;;11.53;;
14681;SDS011;7429;52.498;13.480;2023-03-19T12:07:15;12.83;;;11.57;;
14681;SDS011;7429;52.498;13.480;2023-03-19T12:10:27;12.20;;;11.00;;
14681;SDS011;7429;52.498;13.480;2023-03-19T12:13:50;15.63;;;11.70;;
14681;SDS011;7429;52.498;13.480;2023-03-19T12:17:21;14.67;;;11.17;;
14681;SDS011;7429;52.498;13.480;2023-03-19T12:20:37;12.20;;;10.90;;
14681;SDS011;7429;52.498;13.480;2023-03-19T12:23:58;12.57;;;11.17;;
14681;SDS011;7429;52.498;13.480;2023-03-19T12:27:14;12.03;;;10.60;;
14681;SDS011;7429;52.498;13.480;2023-03-19T12:30:31;12.60;;;11.33;;
14681;SDS011;7429;52.498;13.480;2023-03-19T12:33:40;15.30;;;11.67;;
14681;SDS011;7429;52.498;13.480;2023-03-19T12:36:51;11.63;;;10.53;;
14681;SDS011;7429;52.498;13.480;2023-03-19T12:40:20;14.50;;;13.20;;
14681;SDS011;7429;52.498;13.480;2023-03-19T12:43:52;11.67;;;10.37;;
14681;SDS011;7429;52.498;13.480;2023-03-19T12:47:34;14.10;;;10.90;;
14681;SDS011;7429;52.498;13.480;2023-03-19T12:50:40;14.07;;;12.53;;
14681;SDS011;7429;52.498;13.480;2023-03-19T12:53:49;14.03;;;12.63;;
14681;SDS011;7429;52.498;13.480;2023-03-19T12:56:58;13.57;;;12.20;;
14681;SDS011;7429;52.498;13.480;2023-03-19T13:00:06;14.00;;;10.53;;
14681;SDS011;7429;52.498;13.480;2023-03-19T13:03:21;13.27;;;10.83;;
14681;SDS011;7429;52.498;13.480;2023-03-19T13:06:33;13.10;;;10.70;;
14681;SDS011;7429;52.498;13.480;2023-03-19T13:09:42;12.97;;;11.10;;
14681;SDS011;7429;52.498;13.480;2023-03-19T13:12:50;12.82;;;10.18;;
14681;SDS011;7429;52.498;13.480;2023-03-19T13:15:56;11.63;;;10.52;;
14681;SDS011;7429;52.498;13.480;2023-03-19T13:19:12;14.48;;;10.73;;
14681;SDS011;7429;52.498;13.480;2023-03-19T13:22:23;13.57;;;11.02;;
14681;SDS011;7429;52.498;13.480;2023-03-19T13:25:31;15.98;;;10.50;;
14681;SDS011;7429;52.498;13.480;2023-03-19T13:28:52;12.75;;;10.05;;
14681;SDS011;7429;52.498;13.480;2023-03-19T13:32:00;15.68;;;12.13;;
14681;SDS011;7429;52.498;13.480;2023-03-19T13:35:08;11.77;;;10.57;;
14681;SDS011;7429;52.498;13.480;2023-03-19T13:38:27;12.10;;;10.30;;
14681;SDS011;7429;52.498;13.480;2023-03-19T13:45:29;13.85;;;9.73;;
14681;SDS011;7429;52.498;13.480;2023-03-19T13:48:37;11.02;;;9.93;;
14681;SDS011;7429;52.498;13.480;2023-03-19T13:51:53;10.70;;;9.10;;
14681;SDS011;7429;52.498;13.480;2023-03-19T13:55:00;10.48;;;9.40;;
14681;SDS011;7429;52.498;13.480;2023-03-19T13:58:44;15.35;;;10.88;;
14681;SDS011;7429;52.498;13.480;2023-03-19T14:01:52;8.98;;;8.18;;
14681;SDS011;7429;52.498;13.480;2023-03-19T14:04:57;10.00;;;8.00;;
14681;SDS011;7429;52.498;13.480;2023-03-19T14:08:12;10.95;;;8.43;;
14681;SDS011;7429;52.498;13.480;2023-03-19T14:11:22;11.25;;;8.60;;
14681;SDS011;7429;52.498;13.480;2023-03-19T14:14:28;8.70;;;7.30;;
14681;SDS011;7429;52.498;13.480;2023-03-19T14:17:32;10.88;;;8.73;;
14681;SDS011;7429;52.498;13.480;2023-03-19T14:20:42;7.93;;;7.13;;
14681;SDS011;7429;52.498;13.480;2023-03-19T14:23:53;10.65;;;7.75;;
14681;SDS011;7429;52.498;13.480;2023-03-19T14:27:00;9.15;;;8.00;;
14681;SDS011;7429;52.498;13.480;2023-03-19T14:30:08;9.07;;;7.32;;
14681;SDS011;7429;52.498;13.480;2023-03-19T14:33:24;8.52;;;6.90;;
14681;SDS011;7429;52.498;13.480;2023-03-19T14:36:43;9.65;;;7.40;;
14681;SDS011;7429;52.498;13.480;2023-03-19T14:39:51;14.68;;;9.85;;
14681;SDS011;7429;52.498;13.480;2023-03-19T14:43:02;10.23;;;8.18;;
14681;SDS011;7429;52.498;13.480;2023-03-19T14:46:19;8.52;;;7.70;;
14681;SDS011;7429;52.498;13.480;2023-03-19T14:49:39;8.02;;;6.95;;
14681;SDS011;7429;52.498;13.480;2023-03-19T14:53:18;11.18;;;7.00;;
14681;SDS011;7429;52.498;13.480;2023-03-19T14:56:30;9.07;;;7.47;;
14681;SDS011;7429;52.498;13.480;2023-03-19T14:59:36;7.60;;;6.80;;
14681;SDS011;7429;52.498;13.480;2023-03-19T15:02:43;10.98;;;7.72;;
14681;SDS011;7429;52.498;13.480;2023-03-19T15:05:48;8.80;;;7.80;;
14681;SDS011;7429;52.498;13.480;2023-03-19T15:08:58;9.88;;;7.28;;
14681;SDS011;7429;52.498;13.480;2023-03-19T15:12:12;7.78;;;6.95;;
14681;SDS011;7429;52.498;13.480;2023-03-19T15:15:38;8.48;;;7.55;;
14681;SDS011;7429;52.498;13.480;2023-03-19T15:19:14;9.55;;;7.03;;
14681;SDS011;7429;52.498;13.480;2023-03-19T15:22:25;12.00;;;6.95;;
14681;SDS011;7429;52.498;13.480;2023-03-19T15:25:32;9.68;;;6.88;;
14681;SDS011;7429;52.498;13.480;2023-03-19T15:28:43;11.32;;;7.15;;
14681;SDS011;7429;52.498;13.480;2023-03-19T15:31:50;9.75;;;7.25;;
14681;SDS011;7429;52.498;13.480;2023-03-19T15:35:07;11.27;;;7.97;;
14681;SDS011;7429;52.498;13.480;2023-03-19T15:38:11;10.50;;;7.32;;
14681;SDS011;7429;52.498;13.480;2023-03-19T15:41:18;10.85;;;7.05;;
14681;SDS011;7429;52.498;13.480;2023-03-19T15:44:24;10.60;;;7.68;;
14681;SDS011;7429;52.498;13.480;2023-03-19T15:47:34;9.82;;;8.15;;
14681;SDS011;7429;52.498;13.480;2023-03-19T15:50:43;10.15;;;7.53;;
14681;SDS011;7429;52.498;13.480;2023-03-19T15:53:52;9.07;;;7.28;;
14681;SDS011;7429;52.498;13.480;2023-03-19T15:56:59;9.73;;;7.47;;
14681;SDS011;7429;52.498;13.480;2023-03-19T16:00:02;8.40;;;7.20;;
14681;SDS011;7429;52.498;13.480;2023-03-19T16:03:15;10.30;;;7.95;;
14681;SDS011;7429;52.498;13.480;2023-03-19T16:06:22;12.43;;;7.75;;
14681;SDS011;7429;52.498;13.480;2023-03-19T16:09:31;14.85;;;10.13;;
14681;SDS011;7429;52.498;13.480;2023-03-19T16:12:36;13.38;;;10.20;;
14681;SDS011;7429;52.498;13.480;2023-03-19T16:15:41;13.52;;;9.63;;
14681;SDS011;7429;52.498;13.480;2023-03-19T16:18:47;10.10;;;8.95;;
14681;SDS011;7429;52.498;13.480;2023-03-19T16:21:53;12.60;;;8.43;;
14681;SDS011;7429;52.498;13.480;2023-03-19T16:24:57;12.00;;;9.90;;
14681;SDS011;7429;52.498;13.480;2023-03-19T16:28:04;10.75;;;9.25;;
14681;SDS011;7429;52.498;13.480;2023-03-19T16:31:17;10.82;;;9.02;;
14681;SDS011;7429;52.498;13.480;2023-03-19T16:34:24;13.85;;;9.65;;
14681;SDS011;7429;52.498;13.480;2023-03-19T16:37:41;10.23;;;9.18;;
14681;SDS011;7429;52.498;13.480;2023-03-19T16:40:46;10.93;;;8.50;;
14681;SDS011;7429;52.498;13.480;2023-03-19T16:43:51;11.20;;;8.52;;
14681;SDS011;7429;52.498;13.480;2023-03-19T16:46:54;13.57;;;8.95;;
14681;SDS011;7429;52.498;13.480;2023-03-19T16:49:57;12.50;;;9.52;;
14681;SDS011;7429;52.498;13.480;2023-03-19T16:53:03;13.32;;;9.35;;
14681;SDS011;7429;52.498;13.480;2023-03-19T16:56:12;11.60;;;8.63;;
14681;SDS011;7429;52.498;13.480;2023-03-19T16:59:18;12.82;;;9.57;;
14681;SDS011;7429;52.498;13.480;2023-03-19T17:02:27;11.50;;;9.93;;
14681;SDS011;7429;52.498;13.480;2023-03-19T17:05:36;11.27;;;9.90;;
14681;SDS011;7429;52.498;13.480;2023-03-19T17:08:40;12.25;;;10.10;;
14681;SDS011;7429;52.498;13.480;2023-03-19T17:11:44;16.03;;;10.70;;
14681;SDS011;7429;52.498;13.480;2023-03-19T17:14:47;12.32;;;10.68;;
14681;SDS011;7429;52.498;13.480;2023-03-19T17:17:53;15.40;;;10.25;;
14681;SDS011;7429;52.498;13.480;2023-03-19T17:20:58;13.47;;;11.97;;
14681;SDS011;7429;52.498;13.480;2023-03-19T17:24:14;14.35;;;11.13;;
14681;SDS011;7429;52.498;13.480;2023-03-19T17:27:24;15.95;;;11.57;;
14681;SDS011;7429;52.498;13.480;2023-03-19T17:30:28;15.23;;;10.30;;
14681;SDS011;7429;52.498;13.480;2023-03-19T17:33:31;12.40;;;10.67;;
14681;SDS011;7429;52.498;13.480;2023-03-19T17:36:39;14.40;;;10.53;;
14681;SDS011;7429;52.498;13.480;2023-03-19T17:39:44;15.83;;;11.40;;
14681;SDS011;7429;52.498;13.480;2023-03-19T17:42:48;14.27;;;11.07;;
14681;SDS011;7429;52.498;13.480;2023-03-19T17:45:52;16.10;;;12.30;;
14681;SDS011;7429;52.498;13.480;2023-03-19T17:48:57;19.57;;;11.97;;
14681;SDS011;7429;52.498;13.480;2023-03-19T17:52:01;17.70;;;11.70;;
14681;SDS011;7429;52.498;13.480;2023-03-19T17:55:10;16.53;;;11.30;;
14681;SDS011;7429;52.498;13.480;2023-03-19T17:58:18;15.57;;;12.03;;
14681;SDS011;7429;52.498;13.480;2023-03-19T18:01:24;18.63;;;13.77;;
14681;SDS011;7429;52.498;13.480;2023-03-19T18:04:28;16.20;;;12.30;;
14681;SDS011;7429;52.498;13.480;2023-03-19T18:07:32;18.97;;;12.03;;
14681;SDS011;7429;52.498;13.480;2023-03-19T18:10:36;15.47;;;12.57;;
14681;SDS011;7429;52.498;13.480;2023-03-19T18:13:39;14.60;;;11.50;;
14681;SDS011;7429;52.498;13.480;2023-03-19T18:16:43;20.27;;;13.27;;
14681;SDS011;7429;52.498;13.480;2023-03-19T18:19:47;18.63;;;13.50;;
14681;SDS011;7429;52.498;13.480;2023-03-19T18:22:53;16.37;;;13.70;;
14681;SDS011;7429;52.498;13.480;2023-03-19T18:25:57;18.40;;;14.73;;
14681;SDS011;7429;52.498;13.480;2023-03-19T18:29:00;20.73;;;15.87;;
14681;SDS011;7429;52.498;13.480;2023-03-19T18:32:05;20.10;;;14.13;;